Time;durP1;ratioP1;P1;durP2;ratioP2;P2;SDS_P1;SDS_P2;PMS_P1;PMS_P2;Temp;Humidity;BMP_temperature;BMP_pressure;BME280_temperature;BME280_humidity;BME280_pressure;Samples;Min_cycle;Max_cycle;Signal;HPM_P1;HPM_P2
2023/01/22 00:16:22;;;;;;;88.10;31.40;;;2.30;99.90;;;;;;5889287;23;20818;-83
2023/01/22 00:41:41;;;;;;;74.10;27.87;;;2.30;99.90;;;;;;5842214;24;20257;-83
2023/01/22 01:21:58;;;;;;;54.37;22.30;;;2.20;99.90;;;;;;5726426;24;20190;-84
2023/01/22 01:42:30;;;;;;;67.40;25.20;;;2.10;99.90;;;;;;5686057;24;20623;-82
2023/01/22 02:18:02;;;;;;;44.00;17.20;;;2.10;99.90;;;;;;5836126;24;20177;-81
2023/01/22 02:48:15;;;;;;;54.83;22.67;;;2.00;99.90;;;;;;5788773;24;20285;-82
2023/01/22 03:29:00;;;;;;;47.63;22.07;;;1.90;99.90;;;;;;5990023;23;20228;-84
2023/01/22 03:49:17;;;;;;;43.97;20.67;;;2.10;99.90;;;;;;5763634;24;20214;-81
2023/01/22 04:19:06;;;;;;;40.53;19.33;;;2.00;99.90;;;;;;5590459;24;20575;-82
2023/01/22 04:55:13;;;;;;;33.60;16.37;;;2.00;99.90;;;;;;5794526;23;20445;-82
2023/01/22 05:15:23;;;;;;;16.77;9.73;;;1.90;99.90;;;;;;5818754;24;20219;-81
2023/01/22 05:40:34;;;;;;;33.20;16.93;;;1.90;99.90;;;;;;5711976;24;20209;-84
2023/01/22 06:16:21;;;;;;;34.10;15.87;;;2.00;99.90;;;;;;5791895;24;20219;-84
2023/01/22 06:51:26;;;;;;;29.20;16.37;;;2.00;99.90;;;;;;5802230;24;20254;-84
2023/01/22 07:17:18;;;;;;;27.47;15.77;;;2.00;99.90;;;;;;5899487;23;20209;-84
2023/01/22 07:21:37;;;;;;;22.27;12.13;;;2.00;99.90;;;;;;5753496;24;21068;-82
2023/01/22 07:42:20;;;;;;;14.90;9.00;;;2.10;99.90;;;;;;5708072;24;20703;-83
2023/01/22 08:38:19;;;;;;;21.07;9.57;;;2.30;99.90;;;;;;4873963;28;20243;-82
2023/01/22 09:03:31;;;;;;;19.50;12.20;;;2.40;99.90;;;;;;4623191;30;20217;-83
2023/01/22 09:59:19;;;;;;;18.20;12.27;;;2.40;99.90;;;;;;4717721;29;20351;-82
2023/01/22 10:34:21;;;;;;;25.87;14.77;;;2.50;99.90;;;;;;4729512;29;20869;-83
2023/01/22 11:10:04;;;;;;;22.23;13.50;;;2.70;99.90;;;;;;4733859;29;20572;-82
2023/01/22 11:40:27;;;;;;;25.20;13.90;;;2.60;99.90;;;;;;4886042;28;20250;-85
2023/01/22 12:15:43;;;;;;;25.30;13.70;;;2.50;99.90;;;;;;4903974;28;20218;-81
2023/01/22 12:46:11;;;;;;;29.20;15.33;;;2.40;99.90;;;;;;4761045;29;20265;-85
2023/01/22 13:11:54;;;;;;;26.83;15.10;;;2.40;99.90;;;;;;4876413;29;20228;-83
2023/01/22 13:42:26;;;;;;;24.30;14.07;;;2.40;99.90;;;;;;4683252;30;20203;-84
2023/01/22 14:22:59;;;;;;;24.20;15.17;;;2.40;99.90;;;;;;4922521;28;20245;-83
2023/01/22 14:52:49;;;;;;;14.63;8.77;;;2.30;99.90;;;;;;4817566;29;20617;-83
2023/01/22 15:18:40;;;;;;;30.73;14.60;;;2.20;99.90;;;;;;4806400;29;20239;-83
2023/01/22 15:44:04;;;;;;;25.30;14.00;;;2.20;99.90;;;;;;4780313;29;20253;-85
2023/01/22 16:03:55;;;;;;;27.43;13.53;;;2.20;99.90;;;;;;4703278;29;20618;-84
2023/01/22 16:24:23;;;;;;;16.00;9.27;;;2.20;99.90;;;;;;4872382;28;20228;-85
2023/01/22 16:54:48;;;;;;;32.87;16.30;;;2.00;99.90;;;;;;4756102;29;20268;-85
2023/01/22 17:20:25;;;;;;;29.73;15.87;;;1.80;99.90;;;;;;4755881;29;20225;-84
2023/01/22 17:40:45;;;;;;;30.60;17.60;;;1.80;99.90;;;;;;4841880;29;20203;-84
2023/01/22 18:00:52;;;;;;;39.13;18.33;;;1.80;99.90;;;;;;4746806;29;20219;-84
2023/01/22 18:31:25;;;;;;;32.10;17.70;;;1.70;99.90;;;;;;4942136;28;20209;-85
2023/01/22 18:56:40;;;;;;;37.63;18.87;;;1.70;99.90;;;;;;4978824;28;20237;-84
2023/01/22 19:32:20;;;;;;;40.23;19.90;;;1.60;99.90;;;;;;4952267;28;20208;-84
2023/01/22 19:36:38;;;;;;;37.13;18.63;;;1.60;99.90;;;;;;4889825;28;20696;-85
2023/01/22 19:57:37;;;;;;;24.70;11.80;;;1.70;99.90;;;;;;5012015;28;20333;-83
2023/01/22 20:37:28;;;;;;;34.73;19.27;;;1.70;99.90;;;;;;4817009;29;20482;-85
2023/01/22 20:57:44;;;;;;;25.30;13.53;;;1.70;99.90;;;;;;4825006;29;21187;-83
2023/01/22 21:23:40;;;;;;;31.53;16.83;;;1.70;99.90;;;;;;4851649;29;20240;-83
2023/01/22 21:54:05;;;;;;;26.80;14.40;;;1.70;99.90;;;;;;4942905;28;20227;-84
2023/01/22 22:34:42;;;;;;;33.10;17.53;;;1.70;99.90;;;;;;4930514;28;20238;-85
2023/01/22 23:04:41;;;;;;;22.60;10.70;;;1.80;99.90;;;;;;4904103;28;20640;-84
2023/01/22 23:30:19;;;;;;;28.07;15.67;;;1.90;99.90;;;;;;4751957;29;20228;-83
2023/01/22 23:55:41;;;;;;;31.73;16.47;;;1.80;99.90;;;;;;4729372;29;20696;-82
